Time;durP1;ratioP1;P1;durP2;ratioP2;P2;SDS_P1;SDS_P2;PMS_P1;PMS_P2;Temp;Humidity;BMP_temperature;BMP_pressure;BME280_temperature;BME280_humidity;BME280_pressure;Samples;Min_cycle;Max_cycle;Signal;HPM_P1;HPM_P2
2021/06/28 00:02:01;;;;;;;1.40;1.40;;;19.90;99.90;;;;;;5044253;28;20222;-75
2021/06/28 00:04:31;;;;;;;1.77;1.67;;;19.90;99.90;;;;;;5040146;28;20689;-76
2021/06/28 00:06:58;;;;;;;1.75;1.65;;;19.90;99.90;;;;;;5037092;28;20190;-75
2021/06/28 00:09:27;;;;;;;1.50;1.40;;;19.90;99.90;;;;;;5037415;28;20206;-75
2021/06/28 00:11:54;;;;;;;1.83;1.73;;;19.90;99.90;;;;;;5046452;28;20296;-75
2021/06/28 00:14:21;;;;;;;2.00;1.90;;;20.00;99.90;;;;;;5083039;28;20225;-75
2021/06/28 00:16:49;;;;;;;1.80;1.70;;;19.90;99.90;;;;;;5070132;28;20226;-75
2021/06/28 00:19:16;;;;;;;1.67;1.58;;;19.90;99.90;;;;;;5046971;28;20205;-75
2021/06/28 00:21:43;;;;;;;1.90;1.80;;;20.00;99.90;;;;;;5049056;28;20284;-75
2021/06/28 00:24:10;;;;;;;1.75;1.65;;;20.00;99.90;;;;;;5041509;28;20194;-75
2021/06/28 00:26:39;;;;;;;1.85;1.75;;;19.90;99.90;;;;;;5037828;28;20255;-75
2021/06/28 00:29:06;;;;;;;2.85;1.83;;;20.00;99.90;;;;;;5046315;28;20256;-76
2021/06/28 00:31:33;;;;;;;1.90;1.80;;;19.90;99.90;;;;;;5045713;28;20229;-75
2021/06/28 00:34:01;;;;;;;1.58;1.48;;;20.00;99.90;;;;;;5045300;28;20677;-76
2021/06/28 00:36:28;;;;;;;1.90;1.80;;;19.90;99.90;;;;;;5038152;28;20210;-76
2021/06/28 00:38:55;;;;;;;1.92;1.65;;;19.90;99.90;;;;;;5045195;28;20669;-76
2021/06/28 00:41:22;;;;;;;1.83;1.73;;;19.90;99.90;;;;;;5051045;28;20198;-75
2021/06/28 00:43:51;;;;;;;2.15;2.05;;;20.00;99.90;;;;;;5072099;28;20304;-76
2021/06/28 00:46:18;;;;;;;1.88;1.77;;;19.90;99.90;;;;;;5049827;28;20252;-76
2021/06/28 00:48:45;;;;;;;1.70;1.60;;;19.90;99.90;;;;;;5047414;28;20260;-75
2021/06/28 00:51:12;;;;;;;1.83;1.73;;;19.90;99.90;;;;;;5044759;28;20222;-75
2021/06/28 00:53:39;;;;;;;1.75;1.65;;;20.00;99.90;;;;;;5044917;28;20194;-75
2021/06/28 00:56:10;;;;;;;1.83;1.65;;;20.00;99.90;;;;;;5044624;28;20209;-77
2021/06/28 00:58:39;;;;;;;2.13;2.00;;;19.90;99.90;;;;;;5045654;28;20264;-77
2021/06/28 01:01:08;;;;;;;1.80;1.70;;;19.90;99.90;;;;;;5043461;28;20686;-75
2021/06/28 01:03:36;;;;;;;2.20;2.10;;;19.90;99.90;;;;;;5047734;28;20245;-75
2021/06/28 01:06:03;;;;;;;2.15;1.80;;;19.90;99.90;;;;;;5050062;28;20198;-75
2021/06/28 01:08:31;;;;;;;2.03;1.90;;;19.80;99.90;;;;;;5037226;28;20216;-75
2021/06/28 01:10:58;;;;;;;2.58;1.80;;;19.80;99.90;;;;;;5081511;28;20667;-75
2021/06/28 01:13:26;;;;;;;3.10;1.90;;;19.80;99.90;;;;;;5049957;28;20252;-75
2021/06/28 01:15:54;;;;;;;1.70;1.60;;;19.80;99.90;;;;;;5082277;28;20248;-76
2021/06/28 01:18:23;;;;;;;2.33;1.80;;;19.70;99.90;;;;;;5047711;28;20222;-75
2021/06/28 01:20:50;;;;;;;1.95;1.85;;;19.70;99.90;;;;;;5042004;28;20237;-75
2021/06/28 01:23:24;;;;;;;1.85;1.75;;;19.70;99.90;;;;;;5046465;28;20202;-76
2021/06/28 01:25:53;;;;;;;2.08;1.83;;;19.70;99.90;;;;;;5040530;28;20205;-76
2021/06/28 01:28:21;;;;;;;2.55;2.35;;;19.70;99.90;;;;;;5049248;28;20296;-76
2021/06/28 01:30:49;;;;;;;2.20;2.10;;;19.60;99.90;;;;;;5048641;28;20234;-76
2021/06/28 01:33:16;;;;;;;2.00;1.90;;;19.60;99.90;;;;;;5063856;28;20217;-76
2021/06/28 01:35:44;;;;;;;2.42;2.22;;;19.50;99.90;;;;;;5044814;28;20222;-75
2021/06/28 01:38:11;;;;;;;2.70;2.50;;;19.50;99.90;;;;;;5072858;28;20234;-76
2021/06/28 01:40:41;;;;;;;2.60;2.40;;;19.50;99.90;;;;;;5046899;28;20238;-76
2021/06/28 01:43:09;;;;;;;2.13;2.03;;;19.50;99.90;;;;;;5059972;28;20197;-76
2021/06/28 01:45:37;;;;;;;2.58;2.38;;;19.50;99.90;;;;;;5050686;28;20284;-76
2021/06/28 01:48:05;;;;;;;2.40;2.20;;;19.40;99.90;;;;;;5070818;28;20227;-76
2021/06/28 01:50:34;;;;;;;2.10;2.00;;;19.40;99.90;;;;;;5066071;28;20235;-76
2021/06/28 01:53:02;;;;;;;2.00;1.90;;;19.40;99.90;;;;;;5049232;28;20296;-76
2021/06/28 01:55:30;;;;;;;2.22;2.03;;;19.40;99.90;;;;;;5047127;28;20287;-75
2021/06/28 01:58:00;;;;;;;2.60;2.40;;;19.40;99.90;;;;;;5071427;28;20599;-76
2021/06/28 02:00:31;;;;;;;1.90;1.80;;;19.40;99.90;;;;;;5074720;28;20198;-76
2021/06/28 02:03:00;;;;;;;2.30;2.20;;;19.30;99.90;;;;;;5047546;28;20208;-76
2021/06/28 02:05:28;;;;;;;2.28;2.17;;;19.30;99.90;;;;;;5061627;28;20765;-76
2021/06/28 02:07:55;;;;;;;2.40;2.22;;;19.30;99.90;;;;;;5043629;28;20249;-75
2021/06/28 02:10:23;;;;;;;2.28;2.15;;;19.30;99.90;;;;;;5044994;28;20206;-75
2021/06/28 02:12:50;;;;;;;2.30;2.20;;;19.30;99.90;;;;;;5042438;28;20232;-76
2021/06/28 02:15:20;;;;;;;2.75;2.55;;;19.20;99.90;;;;;;5035568;28;20221;-75
2021/06/28 02:17:47;;;;;;;2.85;2.65;;;19.20;99.90;;;;;;5066079;28;20300;-75
2021/06/28 02:20:14;;;;;;;2.20;2.08;;;19.10;99.90;;;;;;5048371;28;20620;-75
2021/06/28 02:22:42;;;;;;;2.60;2.40;;;19.10;99.90;;;;;;5040964;28;20206;-75
2021/06/28 02:25:10;;;;;;;2.42;2.22;;;19.10;99.90;;;;;;5045866;28;20198;-76
2021/06/28 02:27:37;;;;;;;4.13;2.70;;;19.10;99.90;;;;;;5041773;28;20233;-74
2021/06/28 02:30:08;;;;;;;3.67;2.13;;;19.00;99.90;;;;;;5048943;28;20198;-75
2021/06/28 02:32:36;;;;;;;2.15;2.05;;;19.00;99.90;;;;;;5039891;28;20247;-74
2021/06/28 02:35:04;;;;;;;2.28;2.00;;;19.00;99.90;;;;;;5074088;28;20224;-75
2021/06/28 02:37:31;;;;;;;2.20;2.00;;;19.00;99.90;;;;;;5049856;28;20326;-75
2021/06/28 02:39:59;;;;;;;2.80;2.30;;;19.00;99.90;;;;;;5086583;28;20202;-74
2021/06/28 02:42:26;;;;;;;2.40;2.10;;;19.00;99.90;;;;;;5074508;28;20196;-75
2021/06/28 02:44:53;;;;;;;3.88;2.58;;;19.00;99.90;;;;;;5057092;28;20222;-75
2021/06/28 02:47:20;;;;;;;2.67;2.47;;;19.00;99.90;;;;;;5050902;28;20255;-75
2021/06/28 02:49:49;;;;;;;2.33;2.13;;;19.00;99.90;;;;;;5058724;28;20431;-75
2021/06/28 02:52:16;;;;;;;2.55;2.35;;;19.00;99.90;;;;;;5081624;28;20206;-74
2021/06/28 02:54:43;;;;;;;2.38;2.17;;;19.00;99.90;;;;;;5051429;28;20210;-74
2021/06/28 02:57:10;;;;;;;2.65;2.45;;;19.00;99.90;;;;;;5086830;28;20250;-75
2021/06/28 02:59:37;;;;;;;2.72;2.53;;;19.00;99.90;;;;;;5052500;28;20266;-75
2021/06/28 03:02:04;;;;;;;2.55;2.35;;;19.00;99.90;;;;;;5034723;28;20669;-74
2021/06/28 03:04:32;;;;;;;2.75;2.55;;;19.00;99.90;;;;;;5044140;28;20686;-75
2021/06/28 03:07:00;;;;;;;3.65;2.92;;;19.00;99.90;;;;;;5052554;28;20202;-76
2021/06/28 03:09:27;;;;;;;2.75;2.50;;;19.00;99.90;;;;;;5040044;28;20198;-75
2021/06/28 03:11:55;;;;;;;3.50;2.50;;;19.00;99.90;;;;;;5065432;28;20198;-75
2021/06/28 03:14:22;;;;;;;2.30;2.20;;;19.00;99.90;;;;;;5062581;28;20193;-75
2021/06/28 03:16:49;;;;;;;3.25;2.95;;;19.00;99.90;;;;;;5066407;28;20225;-75
2021/06/28 03:19:16;;;;;;;2.97;2.78;;;19.00;99.90;;;;;;5050881;28;20206;-75
2021/06/28 03:21:43;;;;;;;2.95;2.72;;;19.00;99.90;;;;;;5047809;28;20222;-75
2021/06/28 03:24:12;;;;;;;2.95;2.70;;;19.00;99.90;;;;;;5047179;28;20232;-76
2021/06/28 03:26:39;;;;;;;2.55;2.35;;;19.00;99.90;;;;;;5051327;28;20208;-75
2021/06/28 03:29:06;;;;;;;2.80;2.50;;;19.00;99.90;;;;;;5045232;28;20222;-75
2021/06/28 03:31:33;;;;;;;2.60;2.40;;;19.00;99.90;;;;;;5051265;28;20193;-75
2021/06/28 03:34:00;;;;;;;2.90;2.70;;;19.00;99.90;;;;;;5077114;28;20221;-75
2021/06/28 03:36:28;;;;;;;2.70;2.50;;;19.00;99.90;;;;;;5052337;28;20221;-75
2021/06/28 03:38:55;;;;;;;2.63;2.42;;;19.00;99.90;;;;;;5051435;28;20202;-76
2021/06/28 03:41:23;;;;;;;2.42;2.22;;;19.00;99.90;;;;;;5052390;28;20226;-76
2021/06/28 03:43:50;;;;;;;2.70;2.50;;;19.00;99.90;;;;;;5049523;28;20304;-75
2021/06/28 03:46:18;;;;;;;2.95;2.40;;;19.10;99.90;;;;;;5083381;28;20873;-75
2021/06/28 03:48:45;;;;;;;2.60;2.40;;;19.10;99.90;;;;;;5048319;28;20202;-76
2021/06/28 03:51:12;;;;;;;2.85;2.65;;;19.00;99.90;;;;;;5044428;28;20194;-75
2021/06/28 03:53:39;;;;;;;4.18;2.90;;;19.00;99.90;;;;;;5052072;28;20198;-75
2021/06/28 03:56:09;;;;;;;2.78;2.58;;;19.00;99.90;;;;;;5076411;28;20206;-75
2021/06/28 03:58:39;;;;;;;2.90;2.70;;;19.00;99.90;;;;;;5048739;28;20561;-76
2021/06/28 04:01:07;;;;;;;2.97;2.78;;;19.00;99.90;;;;;;5050672;28;20194;-75
2021/06/28 04:03:36;;;;;;;2.90;2.70;;;19.10;99.90;;;;;;5051031;28;20252;-75
2021/06/28 04:06:04;;;;;;;4.05;2.53;;;19.00;99.90;;;;;;5050790;28;20272;-75
2021/06/28 04:08:31;;;;;;;2.42;2.33;;;19.10;99.90;;;;;;5051454;28;20190;-75
2021/06/28 04:10:59;;;;;;;3.20;2.90;;;19.10;99.90;;;;;;5051615;28;20214;-75
2021/06/28 04:13:26;;;;;;;3.20;2.70;;;19.10;99.90;;;;;;5051040;28;20244;-76
2021/06/28 04:15:55;;;;;;;2.63;2.42;;;19.10;99.90;;;;;;5077378;28;20277;-75
2021/06/28 04:18:22;;;;;;;2.55;2.22;;;19.20;99.90;;;;;;5048976;28;20287;-76
2021/06/28 04:20:50;;;;;;;2.20;2.10;;;19.20;99.90;;;;;;5043805;28;20232;-75
2021/06/28 04:23:17;;;;;;;2.38;2.17;;;19.30;99.90;;;;;;5041192;28;20222;-75
2021/06/28 04:25:45;;;;;;;2.30;2.20;;;19.30;99.90;;;;;;5051833;28;20324;-76
2021/06/28 04:28:12;;;;;;;2.33;2.15;;;19.30;99.90;;;;;;5043886;28;20289;-76
2021/06/28 04:30:40;;;;;;;2.83;2.60;;;19.40;99.90;;;;;;5047457;28;20543;-75
2021/06/28 04:33:08;;;;;;;3.92;2.15;;;19.40;99.90;;;;;;5046691;28;20689;-76
2021/06/28 04:35:35;;;;;;;2.38;2.17;;;19.50;99.90;;;;;;5083795;28;20202;-75
2021/06/28 04:38:02;;;;;;;3.30;2.50;;;19.60;99.90;;;;;;5050690;28;20222;-76
2021/06/28 04:40:31;;;;;;;2.40;2.20;;;19.70;99.90;;;;;;5044966;28;20189;-76
2021/06/28 04:42:59;;;;;;;2.50;2.30;;;19.70;99.90;;;;;;5082160;28;20578;-76
2021/06/28 04:45:27;;;;;;;2.10;2.00;;;19.80;99.90;;;;;;5043318;28;20313;-76
2021/06/28 04:47:54;;;;;;;2.25;2.15;;;19.90;99.90;;;;;;5045309;28;20685;-76
2021/06/28 04:50:24;;;;;;;3.33;2.10;;;19.90;99.90;;;;;;5082710;28;20233;-76
2021/06/28 04:52:51;;;;;;;2.38;2.20;;;20.00;99.90;;;;;;5052955;28;20200;-76
2021/06/28 04:55:19;;;;;;;2.67;2.47;;;20.10;99.90;;;;;;5051048;28;20206;-76
2021/06/28 04:57:46;;;;;;;2.05;1.95;;;20.20;99.90;;;;;;5072119;28;20310;-75
2021/06/28 05:00:15;;;;;;;2.97;2.67;;;20.30;99.90;;;;;;5080935;28;20197;-75
2021/06/28 05:02:43;;;;;;;2.33;2.13;;;20.40;99.90;;;;;;5049738;28;20710;-75
2021/06/28 05:05:12;;;;;;;2.60;2.40;;;20.40;99.90;;;;;;5048273;28;20609;-75
2021/06/28 05:07:42;;;;;;;2.15;2.05;;;20.50;99.90;;;;;;5050963;28;20762;-75
2021/06/28 05:10:11;;;;;;;2.75;2.55;;;20.60;99.90;;;;;;5049001;28;20259;-75
2021/06/28 05:12:38;;;;;;;2.20;2.10;;;20.60;99.90;;;;;;5049796;28;20217;-75
2021/06/28 05:15:07;;;;;;;2.65;2.45;;;20.70;99.90;;;;;;5048954;28;20190;-75
2021/06/28 05:17:34;;;;;;;2.25;2.10;;;20.80;99.90;;;;;;5049725;28;20209;-75
2021/06/28 05:20:01;;;;;;;2.30;2.20;;;20.90;99.90;;;;;;5048896;28;20684;-76
2021/06/28 05:22:28;;;;;;;2.33;2.13;;;21.00;99.90;;;;;;5048848;28;20236;-75
2021/06/28 05:24:57;;;;;;;2.55;2.38;;;21.10;99.90;;;;;;5050743;28;20528;-75
2021/06/28 05:27:24;;;;;;;2.53;2.33;;;21.20;99.90;;;;;;5074871;28;20665;-75
2021/06/28 05:29:55;;;;;;;2.17;2.08;;;21.30;99.90;;;;;;5082150;28;20231;-74
2021/06/28 05:32:22;;;;;;;2.45;2.22;;;21.40;99.90;;;;;;5074473;28;20225;-75
2021/06/28 05:34:50;;;;;;;2.72;2.17;;;21.50;99.90;;;;;;5075097;28;20198;-75
2021/06/28 05:37:17;;;;;;;2.00;1.90;;;21.60;99.90;;;;;;5044075;28;20221;-74
2021/06/28 05:39:44;;;;;;;1.90;1.80;;;21.70;99.90;;;;;;5042979;28;20241;-75
2021/06/28 05:42:13;;;;;;;2.33;2.13;;;21.80;99.90;;;;;;5077855;28;20250;-75
2021/06/28 05:44:40;;;;;;;2.13;2.03;;;21.90;99.90;;;;;;5043688;28;20233;-76
2021/06/28 05:47:08;;;;;;;3.08;2.15;;;22.00;99.90;;;;;;5037949;28;20186;-76
2021/06/28 05:49:37;;;;;;;2.20;2.03;;;22.20;99.90;;;;;;5039589;28;20218;-76
2021/06/28 05:52:05;;;;;;;2.10;2.00;;;22.40;99.90;;;;;;5032286;28;20301;-76
2021/06/28 05:54:32;;;;;;;2.33;2.17;;;22.50;99.90;;;;;;5041738;28;20622;-76
2021/06/28 05:57:00;;;;;;;2.17;2.08;;;22.60;99.90;;;;;;5047765;28;20283;-76
2021/06/28 05:59:29;;;;;;;2.45;2.25;;;22.70;99.90;;;;;;5078003;28;20616;-75
2021/06/28 06:01:56;;;;;;;2.00;1.90;;;22.90;99.90;;;;;;5043607;28;20217;-76
2021/06/28 06:04:23;;;;;;;2.10;2.00;;;23.00;99.90;;;;;;5044544;28;20281;-76
2021/06/28 06:06:51;;;;;;;1.70;1.60;;;23.30;99.90;;;;;;5036020;28;20212;-76
2021/06/28 06:09:18;;;;;;;2.40;2.20;;;23.50;99.90;;;;;;5033439;28;20299;-77
2021/06/28 06:11:46;;;;;;;2.05;1.90;;;23.70;99.90;;;;;;5038319;28;20206;-77
2021/06/28 06:14:15;;;;;;;2.17;1.95;;;23.90;99.90;;;;;;5042712;28;20209;-77
2021/06/28 06:16:46;;;;;;;1.77;1.67;;;24.10;99.90;;;;;;5043532;28;20324;-76
2021/06/28 06:19:13;;;;;;;1.73;1.63;;;25.20;99.90;;;;;;5043658;28;20429;-76
2021/06/28 06:21:41;;;;;;;1.55;1.50;;;27.40;99.90;;;;;;5045435;28;20280;-75
2021/06/28 06:24:09;;;;;;;5.38;2.70;;;29.90;97.40;;;;;;5074407;28;20201;-76
2021/06/28 06:26:36;;;;;;;1.40;1.40;;;32.00;91.30;;;;;;5042693;28;20296;-75
2021/06/28 06:29:04;;;;;;;1.60;1.50;;;33.90;84.40;;;;;;5046888;28;20198;-76
2021/06/28 06:31:31;;;;;;;1.75;1.63;;;35.60;77.20;;;;;;5076267;28;20193;-77
2021/06/28 06:34:00;;;;;;;2.00;1.80;;;37.10;69.20;;;;;;5046947;28;20649;-76
2021/06/28 06:36:27;;;;;;;1.50;1.50;;;38.40;63.80;;;;;;5040170;28;20697;-74
2021/06/28 06:38:54;;;;;;;1.48;1.48;;;39.30;59.60;;;;;;5044212;28;20230;-76
2021/06/28 06:41:21;;;;;;;2.10;2.00;;;40.20;56.30;;;;;;5046328;28;20259;-77
2021/06/28 06:43:48;;;;;;;1.80;1.75;;;41.10;52.90;;;;;;5044775;28;20230;-76
2021/06/28 06:46:15;;;;;;;2.28;2.17;;;42.00;50.60;;;;;;5043352;28;20201;-77
2021/06/28 06:48:42;;;;;;;1.98;1.88;;;42.80;47.50;;;;;;5045713;28;20210;-74
2021/06/28 06:51:11;;;;;;;2.10;2.00;;;43.20;46.10;;;;;;5044601;28;20209;-76
2021/06/28 06:53:38;;;;;;;2.30;2.10;;;43.50;45.00;;;;;;5045853;28;20219;-74
2021/06/28 06:56:06;;;;;;;2.00;1.90;;;43.70;43.80;;;;;;5045777;28;20193;-75
2021/06/28 06:58:35;;;;;;;2.10;2.00;;;44.20;43.00;;;;;;5043526;28;20533;-75
2021/06/28 07:01:02;;;;;;;2.88;1.85;;;44.40;41.30;;;;;;5044452;28;20190;-77
2021/06/28 07:03:29;;;;;;;2.00;1.90;;;43.30;41.10;;;;;;5036912;28;20209;-77
2021/06/28 07:05:56;;;;;;;2.05;1.95;;;42.80;41.60;;;;;;5046036;28;20200;-78
2021/06/28 07:08:24;;;;;;;2.10;2.00;;;43.20;41.10;;;;;;5044327;28;20225;-76
2021/06/28 07:10:51;;;;;;;2.65;2.30;;;43.90;40.20;;;;;;5038077;28;20198;-77
2021/06/28 07:13:19;;;;;;;2.40;2.20;;;44.40;38.60;;;;;;5039587;28;20228;-76
2021/06/28 07:15:46;;;;;;;2.08;1.98;;;44.60;37.90;;;;;;5039494;28;20247;-77
2021/06/28 07:18:13;;;;;;;2.10;2.00;;;44.10;37.70;;;;;;5039642;28;20189;-74
2021/06/28 07:20:40;;;;;;;1.88;1.88;;;43.00;38.20;;;;;;5038512;28;20220;-77
2021/06/28 07:23:08;;;;;;;2.55;2.00;;;42.00;39.10;;;;;;5036977;28;20312;-76
2021/06/28 07:25:36;;;;;;;2.00;1.90;;;40.80;39.70;;;;;;5042874;28;20204;-76
2021/06/28 07:28:04;;;;;;;2.17;2.05;;;39.70;40.80;;;;;;5039562;28;20232;-75
2021/06/28 07:30:32;;;;;;;1.92;1.77;;;38.70;41.80;;;;;;5034337;28;20196;-78
2021/06/28 07:32:59;;;;;;;2.40;2.30;;;38.00;42.70;;;;;;5033672;28;20275;-76
2021/06/28 07:35:27;;;;;;;2.22;2.03;;;37.20;42.90;;;;;;5065757;28;20665;-75
2021/06/28 07:37:54;;;;;;;2.30;2.20;;;36.60;43.60;;;;;;5029057;28;20634;-75
2021/06/28 07:40:21;;;;;;;1.60;1.60;;;36.10;44.10;;;;;;5036273;28;20734;-76
2021/06/28 07:42:51;;;;;;;1.60;1.60;;;35.70;44.60;;;;;;5075879;28;20228;-74
2021/06/28 07:45:20;;;;;;;1.67;1.67;;;35.30;45.30;;;;;;5033644;28;20317;-74
2021/06/28 07:47:48;;;;;;;1.92;1.77;;;34.90;45.80;;;;;;5035698;28;20230;-76
2021/06/28 07:50:17;;;;;;;1.90;1.80;;;34.60;46.00;;;;;;5037423;28;20693;-76
2021/06/28 07:52:45;;;;;;;2.00;1.90;;;34.30;46.30;;;;;;5038438;28;20674;-74
2021/06/28 07:55:14;;;;;;;2.88;2.20;;;34.10;46.60;;;;;;5062314;28;20226;-76
2021/06/28 07:57:41;;;;;;;1.80;1.80;;;33.70;46.80;;;;;;5038759;28;20776;-76
2021/06/28 08:00:12;;;;;;;1.55;1.55;;;33.40;47.10;;;;;;5038379;28;20697;-77
2021/06/28 08:02:41;;;;;;;2.13;2.03;;;33.10;47.40;;;;;;5082239;28;20677;-76
2021/06/28 08:05:11;;;;;;;2.20;2.10;;;32.80;47.50;;;;;;5078210;28;20202;-77
2021/06/28 08:07:38;;;;;;;2.17;2.08;;;32.60;47.90;;;;;;5044626;28;20674;-76
2021/06/28 08:10:08;;;;;;;1.83;1.73;;;32.40;48.20;;;;;;5044702;28;20657;-77
2021/06/28 08:12:35;;;;;;;1.70;1.70;;;32.40;48.60;;;;;;5073496;28;20229;-77
2021/06/28 08:15:02;;;;;;;1.98;1.88;;;32.30;48.90;;;;;;5047077;28;20289;-76
2021/06/28 08:17:30;;;;;;;1.50;1.50;;;32.20;49.10;;;;;;5047403;28;20213;-78
2021/06/28 08:19:57;;;;;;;1.30;1.30;;;32.10;49.20;;;;;;5047193;28;20288;-76
2021/06/28 08:22:24;;;;;;;1.50;1.50;;;32.10;49.50;;;;;;5048063;28;20198;-76
2021/06/28 08:24:51;;;;;;;2.45;1.60;;;32.00;49.70;;;;;;5044949;28;20224;-76
2021/06/28 08:27:18;;;;;;;2.00;1.85;;;31.90;50.30;;;;;;5043544;28;20229;-78
2021/06/28 08:29:46;;;;;;;2.20;2.10;;;31.80;50.00;;;;;;5045673;28;20814;-76
2021/06/28 08:32:13;;;;;;;1.92;1.83;;;31.80;50.10;;;;;;5046292;28;20289;-78
2021/06/28 08:34:41;;;;;;;1.80;1.70;;;31.80;50.50;;;;;;5046917;28;20232;-74
2021/06/28 08:37:08;;;;;;;1.80;1.70;;;31.70;50.40;;;;;;5042380;28;20725;-76
2021/06/28 08:39:35;;;;;;;1.70;1.60;;;31.70;50.90;;;;;;5044275;28;20233;-76
2021/06/28 08:42:06;;;;;;;2.03;1.92;;;31.70;50.60;;;;;;5047368;28;20213;-77
2021/06/28 08:44:34;;;;;;;1.80;1.70;;;31.70;50.30;;;;;;5047757;28;20230;-76
2021/06/28 08:47:01;;;;;;;1.30;1.30;;;31.60;50.70;;;;;;5047851;28;20290;-77
2021/06/28 08:49:28;;;;;;;1.77;1.75;;;31.60;51.20;;;;;;5048773;28;20231;-77
2021/06/28 08:51:57;;;;;;;1.67;1.60;;;31.60;51.30;;;;;;5047897;28;20209;-76
2021/06/28 08:54:24;;;;;;;2.10;2.00;;;31.60;51.40;;;;;;5078613;28;20205;-78
2021/06/28 08:56:51;;;;;;;3.33;3.05;;;31.60;51.50;;;;;;5047691;28;20202;-76
2021/06/28 08:59:18;;;;;;;5.03;2.30;;;31.50;51.40;;;;;;5079620;28;20197;-76
2021/06/28 09:01:45;;;;;;;2.67;2.58;;;31.30;51.80;;;;;;5077780;28;20218;-77
2021/06/28 09:04:13;;;;;;;4.63;2.55;;;31.20;52.20;;;;;;5046707;28;20301;-74
2021/06/28 09:06:40;;;;;;;3.20;2.20;;;31.10;52.40;;;;;;5078591;28;20539;-75
2021/06/28 09:09:10;;;;;;;2.33;2.22;;;31.00;52.80;;;;;;5034549;28;20224;-75
2021/06/28 09:11:39;;;;;;;2.30;2.10;;;31.00;52.80;;;;;;5043956;28;20198;-75
2021/06/28 09:14:07;;;;;;;4.70;2.70;;;31.00;52.90;;;;;;5043231;28;20576;-75
2021/06/28 09:16:36;;;;;;;6.78;3.35;;;31.00;52.80;;;;;;5074413;28;20291;-75
2021/06/28 09:19:06;;;;;;;3.90;2.58;;;31.10;52.90;;;;;;5047786;28;20290;-75
2021/06/28 09:21:38;;;;;;;2.10;2.00;;;31.10;53.00;;;;;;5042552;28;20640;-76
2021/06/28 09:24:08;;;;;;;3.55;2.97;;;31.10;53.20;;;;;;5100866;28;20244;-75
2021/06/28 09:26:38;;;;;;;3.10;2.80;;;31.10;53.20;;;;;;5071012;28;20247;-76
2021/06/28 09:29:08;;;;;;;4.07;3.00;;;31.00;53.10;;;;;;5065374;28;20497;-76
2021/06/28 09:31:42;;;;;;;3.03;2.83;;;30.90;53.10;;;;;;5047853;28;20228;-76
2021/06/28 09:34:15;;;;;;;8.25;2.60;;;30.90;53.10;;;;;;5044386;28;20209;-76
2021/06/28 09:36:48;;;;;;;2.83;2.63;;;30.80;53.30;;;;;;5061964;28;20240;-76
2021/06/28 09:39:27;;;;;;;3.15;2.95;;;30.80;53.50;;;;;;5071870;28;20201;-76
2021/06/28 09:42:00;;;;;;;2.90;2.65;;;30.80;53.70;;;;;;5071735;28;20193;-75
2021/06/28 09:44:31;;;;;;;3.40;3.10;;;30.80;53.80;;;;;;5062287;28;20230;-76
2021/06/28 09:47:20;;;;;;;3.08;2.88;;;30.60;53.80;;;;;;5046414;28;20279;-75
2021/06/28 09:50:01;;;;;;;3.00;2.80;;;30.50;54.10;;;;;;5022732;28;20253;-74
2021/06/28 09:52:33;;;;;;;3.08;2.88;;;30.30;54.30;;;;;;5006271;28;20248;-77
2021/06/28 09:55:15;;;;;;;2.70;2.50;;;30.20;54.50;;;;;;5024459;28;20226;-73
2021/06/28 09:58:09;;;;;;;2.75;2.58;;;30.10;54.60;;;;;;5022518;28;20253;-76
2021/06/28 10:00:38;;;;;;;2.50;2.30;;;30.20;54.70;;;;;;5002563;28;20206;-76
2021/06/28 10:03:05;;;;;;;2.20;2.10;;;30.30;54.90;;;;;;4998823;28;20202;-76
2021/06/28 10:05:37;;;;;;;4.40;3.03;;;30.40;54.80;;;;;;5015323;28;20206;-75
2021/06/28 10:08:14;;;;;;;2.42;2.33;;;30.60;54.80;;;;;;5003717;28;20589;-76
2021/06/28 10:10:42;;;;;;;2.80;2.60;;;30.60;54.80;;;;;;5006714;28;20322;-75
2021/06/28 10:13:11;;;;;;;3.10;2.90;;;30.60;54.80;;;;;;5022174;28;20780;-76
2021/06/28 10:15:40;;;;;;;2.33;2.22;;;30.70;54.80;;;;;;5004363;28;20545;-75
2021/06/28 10:18:09;;;;;;;4.10;2.53;;;30.80;54.90;;;;;;5022071;28;20286;-75
2021/06/28 10:20:38;;;;;;;3.38;2.95;;;30.90;54.70;;;;;;5020417;28;20252;-77
2021/06/28 10:23:06;;;;;;;2.22;2.13;;;30.90;54.50;;;;;;5003067;28;20604;-74
2021/06/28 10:25:34;;;;;;;3.08;2.60;;;30.90;54.80;;;;;;5023759;28;20276;-77
2021/06/28 10:28:04;;;;;;;4.80;2.88;;;30.90;54.90;;;;;;5044950;28;20201;-75
2021/06/28 10:30:33;;;;;;;3.08;2.88;;;30.90;54.80;;;;;;5044581;28;20228;-77
2021/06/28 10:33:07;;;;;;;3.00;2.83;;;31.00;54.80;;;;;;5045918;28;20208;-79
2021/06/28 10:35:37;;;;;;;4.55;2.90;;;31.20;54.80;;;;;;5042743;28;20193;-75
2021/06/28 10:38:08;;;;;;;2.70;2.60;;;31.20;54.50;;;;;;5043485;28;20198;-74
2021/06/28 10:41:01;;;;;;;3.40;2.70;;;31.20;54.70;;;;;;5045772;28;20202;-76
2021/06/28 10:43:31;;;;;;;6.13;2.50;;;31.20;54.80;;;;;;5018419;28;20219;-76
2021/06/28 10:46:00;;;;;;;5.38;2.78;;;31.20;54.90;;;;;;5022412;28;20205;-76
2021/06/28 10:48:48;;;;;;;5.38;2.88;;;31.30;55.00;;;;;;5003668;28;20225;-76
2021/06/28 10:51:18;;;;;;;5.93;2.85;;;31.20;54.60;;;;;;5000501;28;20289;-76
2021/06/28 10:54:17;;;;;;;2.95;2.75;;;31.20;54.60;;;;;;5005109;28;20215;-76
2021/06/28 10:56:55;;;;;;;3.03;2.83;;;31.20;54.40;;;;;;5019059;28;20220;-76
2021/06/28 10:59:25;;;;;;;2.28;2.17;;;31.10;54.50;;;;;;5018190;28;20600;-76
2021/06/28 11:02:10;;;;;;;2.63;2.42;;;31.20;54.80;;;;;;5021586;28;20635;-76
2021/06/28 11:04:39;;;;;;;2.53;2.33;;;31.30;54.80;;;;;;5022148;28;20210;-76
2021/06/28 11:07:12;;;;;;;4.07;2.72;;;31.30;54.70;;;;;;5000911;28;20696;-76
2021/06/28 11:09:43;;;;;;;2.80;2.70;;;31.30;54.60;;;;;;5003963;28;20298;-76
2021/06/28 11:12:37;;;;;;;2.78;2.67;;;31.40;54.60;;;;;;5005013;28;20201;-76
2021/06/28 11:15:09;;;;;;;3.05;2.88;;;31.30;54.50;;;;;;4955213;28;20713;-75
2021/06/28 11:17:43;;;;;;;5.57;3.15;;;31.30;54.20;;;;;;4943417;28;20208;-76
2021/06/28 11:20:27;;;;;;;4.22;2.95;;;31.20;54.20;;;;;;4953780;28;20204;-76
2021/06/28 11:23:02;;;;;;;3.90;3.20;;;31.10;54.30;;;;;;4982677;28;20262;-76
2021/06/28 11:25:39;;;;;;;2.95;2.85;;;31.10;54.50;;;;;;4983786;28;20209;-76
2021/06/28 11:28:16;;;;;;;3.13;2.92;;;31.00;54.40;;;;;;4962579;28;20228;-76
2021/06/28 11:30:55;;;;;;;6.95;2.80;;;31.00;54.40;;;;;;4966197;28;20832;-76
2021/06/28 11:33:38;;;;;;;3.15;2.92;;;30.90;54.40;;;;;;4977060;28;20196;-76
2021/06/28 11:36:28;;;;;;;2.85;2.60;;;30.70;54.50;;;;;;4975422;28;20216;-75
2021/06/28 11:38:56;;;;;;;2.20;2.10;;;30.60;54.90;;;;;;4966220;28;20270;-76
2021/06/28 11:41:24;;;;;;;2.70;2.60;;;30.60;55.10;;;;;;4980318;28;20204;-76
2021/06/28 11:43:53;;;;;;;3.25;3.00;;;30.70;54.90;;;;;;4979320;28;20711;-76
2021/06/28 11:46:27;;;;;;;3.60;3.38;;;30.70;54.80;;;;;;4979689;28;20239;-76
2021/06/28 11:49:02;;;;;;;5.22;2.90;;;30.60;54.80;;;;;;4982865;28;20641;-75
2021/06/28 11:51:31;;;;;;;3.90;3.03;;;30.70;55.00;;;;;;5023103;28;20206;-77
2021/06/28 11:54:01;;;;;;;4.82;2.70;;;31.30;54.30;;;;;;5042601;28;20693;-76
2021/06/28 11:56:31;;;;;;;3.97;2.50;;;31.60;53.70;;;;;;5047974;28;20661;-75
2021/06/28 11:59:04;;;;;;;3.63;2.40;;;32.20;53.30;;;;;;5068989;28;20614;-75
2021/06/28 12:01:34;;;;;;;2.95;2.75;;;32.60;52.50;;;;;;5036045;28;20209;-76
2021/06/28 12:04:04;;;;;;;2.97;2.88;;;33.00;52.20;;;;;;5050559;28;20293;-75
2021/06/28 12:06:34;;;;;;;3.05;2.85;;;33.30;51.80;;;;;;5085290;28;20726;-75
2021/06/28 12:09:10;;;;;;;5.70;2.97;;;33.50;51.50;;;;;;5079894;28;20312;-74
2021/06/28 12:11:47;;;;;;;3.45;3.15;;;33.80;51.10;;;;;;5047833;28;20217;-75
2021/06/28 12:14:28;;;;;;;2.97;2.78;;;34.00;50.80;;;;;;5042068;28;20557;-77
2021/06/28 12:16:55;;;;;;;3.40;3.20;;;34.00;50.60;;;;;;5041477;28;20291;-75
2021/06/28 12:19:24;;;;;;;5.07;3.42;;;33.90;50.20;;;;;;5049134;28;20190;-78
2021/06/28 12:21:51;;;;;;;6.70;3.20;;;33.70;50.10;;;;;;5043081;28;20229;-73
2021/06/28 12:24:20;;;;;;;3.50;3.30;;;33.60;50.40;;;;;;5046629;28;20592;-75
2021/06/28 12:27:03;;;;;;;3.42;3.22;;;33.60;50.30;;;;;;5042303;28;20209;-75
2021/06/28 12:29:33;;;;;;;3.47;3.20;;;33.50;49.90;;;;;;5079205;28;20586;-76
2021/06/28 12:32:28;;;;;;;4.57;3.08;;;33.10;50.00;;;;;;5080593;28;20315;-74
2021/06/28 12:34:59;;;;;;;3.38;3.08;;;32.80;50.50;;;;;;5048987;28;20218;-74
2021/06/28 12:37:29;;;;;;;3.30;3.10;;;32.20;51.80;;;;;;5046411;28;20214;-74
2021/06/28 12:40:20;;;;;;;4.18;3.17;;;31.80;51.90;;;;;;5045732;28;20292;-73
2021/06/28 12:42:49;;;;;;;3.72;2.75;;;31.50;52.70;;;;;;5042424;28;20506;-74
2021/06/28 12:45:18;;;;;;;3.53;3.22;;;31.10;53.50;;;;;;5049861;28;20241;-73
2021/06/28 12:47:49;;;;;;;3.90;2.85;;;30.80;54.40;;;;;;5045755;28;20268;-73
2021/06/28 12:50:19;;;;;;;2.63;2.47;;;30.30;55.10;;;;;;5044621;28;20360;-73
2021/06/28 12:52:46;;;;;;;3.65;2.70;;;30.00;55.90;;;;;;5046916;28;20229;-75
2021/06/28 12:55:19;;;;;;;4.50;3.17;;;29.50;56.80;;;;;;5048831;28;20281;-74
2021/06/28 12:57:47;;;;;;;3.38;3.00;;;29.20;57.40;;;;;;5046584;28;20294;-76
2021/06/28 13:00:24;;;;;;;3.85;3.15;;;29.00;58.30;;;;;;5047369;28;20213;-75